sensor_id;sensor_type;location;lat;lon;timestamp;temperature;humidity
20957;DHT22;10637;47.970;7.830;2023-08-24T00:03:07;23.10;99.90
20957;DHT22;10637;47.970;7.830;2023-08-24T00:08:10;23.10;99.90
20957;DHT22;10637;47.970;7.830;2023-08-24T00:13:14;22.90;99.90
20957;DHT22;10637;47.970;7.830;2023-08-24T00:18:16;22.80;99.90
20957;DHT22;10637;47.970;7.830;2023-08-24T00:23:20;23.00;99.90
20957;DHT22;10637;47.970;7.830;2023-08-24T00:28:21;22.80;99.90
20957;DHT22;10637;47.970;7.830;2023-08-24T00:33:23;23.20;99.90
20957;DHT22;10637;47.970;7.830;2023-08-24T00:38:25;23.00;99.90
20957;DHT22;10637;47.970;7.830;2023-08-24T00:43:28;22.80;99.90
20957;DHT22;10637;47.970;7.830;2023-08-24T00:48:31;22.40;99.90
20957;DHT22;10637;47.970;7.830;2023-08-24T00:53:33;22.80;99.90
20957;DHT22;10637;47.970;7.830;2023-08-24T00:58:35;22.80;99.90
20957;DHT22;10637;47.970;7.830;2023-08-24T01:03:37;22.90;99.90
20957;DHT22;10637;47.970;7.830;2023-08-24T01:08:39;22.90;99.90
20957;DHT22;10637;47.970;7.830;2023-08-24T01:18:59;22.50;99.90
20957;DHT22;10637;47.970;7.830;2023-08-24T01:24:12;22.70;99.90
20957;DHT22;10637;47.970;7.830;2023-08-24T01:29:15;23.10;99.90
20957;DHT22;10637;47.970;7.830;2023-08-24T01:34:17;23.10;99.90
20957;DHT22;10637;47.970;7.830;2023-08-24T01:39:31;22.70;99.90
20957;DHT22;10637;47.970;7.830;2023-08-24T01:44:39;23.10;99.90
20957;DHT22;10637;47.970;7.830;2023-08-24T01:49:44;23.00;99.90
20957;DHT22;10637;47.970;7.830;2023-08-24T01:54:47;23.10;99.90
20957;DHT22;10637;47.970;7.830;2023-08-24T01:59:49;23.00;99.90
20957;DHT22;10637;47.970;7.830;2023-08-24T02:04:51;23.10;99.90
20957;DHT22;10637;47.970;7.830;2023-08-24T02:09:53;23.00;99.90
20957;DHT22;10637;47.970;7.830;2023-08-24T02:14:54;22.90;99.90
20957;DHT22;10637;47.970;7.830;2023-08-24T02:19:56;22.90;99.90
20957;DHT22;10637;47.970;7.830;2023-08-24T02:24:58;22.80;99.90
20957;DHT22;10637;47.970;7.830;2023-08-24T02:30:00;22.80;99.90
20957;DHT22;10637;47.970;7.830;2023-08-24T02:35:02;22.50;99.90
20957;DHT22;10637;47.970;7.830;2023-08-24T02:40:04;23.00;99.90
20957;DHT22;10637;47.970;7.830;2023-08-24T02:45:07;22.80;99.90
20957;DHT22;10637;47.970;7.830;2023-08-24T02:50:09;22.80;99.90
20957;DHT22;10637;47.970;7.830;2023-08-24T02:55:12;22.80;99.90
20957;DHT22;10637;47.970;7.830;2023-08-24T03:00:14;22.90;99.90
20957;DHT22;10637;47.970;7.830;2023-08-24T03:05:16;22.90;99.90
20957;DHT22;10637;47.970;7.830;2023-08-24T03:10:18;22.60;99.90
20957;DHT22;10637;47.970;7.830;2023-08-24T03:15:19;22.60;99.90
20957;DHT22;10637;47.970;7.830;2023-08-24T03:20:22;22.80;99.90
20957;DHT22;10637;47.970;7.830;2023-08-24T03:25:24;22.80;99.90
20957;DHT22;10637;47.970;7.830;2023-08-24T03:30:27;22.90;99.90
20957;DHT22;10637;47.970;7.830;2023-08-24T03:35:30;23.00;99.90
20957;DHT22;10637;47.970;7.830;2023-08-24T03:40:32;22.90;99.90
20957;DHT22;10637;47.970;7.830;2023-08-24T03:45:34;22.60;99.90
20957;DHT22;10637;47.970;7.830;2023-08-24T03:50:36;22.30;99.90
20957;DHT22;10637;47.970;7.830;2023-08-24T03:55:38;22.60;99.90
20957;DHT22;10637;47.970;7.830;2023-08-24T04:00:40;22.80;99.90
20957;DHT22;10637;47.970;7.830;2023-08-24T04:05:43;22.30;99.90
20957;DHT22;10637;47.970;7.830;2023-08-24T04:10:45;22.00;99.90
20957;DHT22;10637;47.970;7.830;2023-08-24T04:15:46;22.40;99.90
20957;DHT22;10637;47.970;7.830;2023-08-24T04:20:48;22.60;99.90
20957;DHT22;10637;47.970;7.830;2023-08-24T04:25:53;22.30;99.90
20957;DHT22;10637;47.970;7.830;2023-08-24T04:30:56;22.60;99.90
20957;DHT22;10637;47.970;7.830;2023-08-24T04:35:58;22.50;99.90
20957;DHT22;10637;47.970;7.830;2023-08-24T04:41:00;22.60;99.90
20957;DHT22;10637;47.970;7.830;2023-08-24T04:46:02;22.50;99.90
20957;DHT22;10637;47.970;7.830;2023-08-24T04:51:04;22.20;99.90
20957;DHT22;10637;47.970;7.830;2023-08-24T04:56:05;22.80;99.90
20957;DHT22;10637;47.970;7.830;2023-08-24T05:01:07;22.80;99.90
20957;DHT22;10637;47.970;7.830;2023-08-24T05:06:09;22.80;99.90
20957;DHT22;10637;47.970;7.830;2023-08-24T05:11:17;22.60;99.90
20957;DHT22;10637;47.970;7.830;2023-08-24T05:16:19;22.50;99.90
20957;DHT22;10637;47.970;7.830;2023-08-24T05:21:20;22.40;99.90
20957;DHT22;10637;47.970;7.830;2023-08-24T05:26:22;22.60;99.90
20957;DHT22;10637;47.970;7.830;2023-08-24T05:31:25;22.70;99.90
20957;DHT22;10637;47.970;7.830;2023-08-24T05:36:27;22.90;99.90
20957;DHT22;10637;47.970;7.830;2023-08-24T05:41:29;23.00;99.90
20957;DHT22;10637;47.970;7.830;2023-08-24T05:46:31;22.90;99.90
20957;DHT22;10637;47.970;7.830;2023-08-24T05:51:33;23.10;99.90
20957;DHT22;10637;47.970;7.830;2023-08-24T05:56:34;23.30;99.90
20957;DHT22;10637;47.970;7.830;2023-08-24T06:01:36;23.70;99.90
20957;DHT22;10637;47.970;7.830;2023-08-24T06:06:41;24.20;99.90
20957;DHT22;10637;47.970;7.830;2023-08-24T06:11:42;24.50;99.90
20957;DHT22;10637;47.970;7.830;2023-08-24T06:16:44;24.60;99.90
20957;DHT22;10637;47.970;7.830;2023-08-24T06:21:46;24.30;99.90
20957;DHT22;10637;47.970;7.830;2023-08-24T06:26:48;24.60;99.90
20957;DHT22;10637;47.970;7.830;2023-08-24T06:31:50;25.10;99.90
20957;DHT22;10637;47.970;7.830;2023-08-24T06:36:53;25.40;99.90
20957;DHT22;10637;47.970;7.830;2023-08-24T06:41:55;25.40;99.90
20957;DHT22;10637;47.970;7.830;2023-08-24T06:46:56;25.60;99.90
20957;DHT22;10637;47.970;7.830;2023-08-24T06:51:58;25.20;99.90
20957;DHT22;10637;47.970;7.830;2023-08-24T06:57:03;25.60;99.90
20957;DHT22;10637;47.970;7.830;2023-08-24T07:02:05;25.60;99.90
20957;DHT22;10637;47.970;7.830;2023-08-24T07:07:07;25.80;99.90
20957;DHT22;10637;47.970;7.830;2023-08-24T07:12:09;25.60;99.90
20957;DHT22;10637;47.970;7.830;2023-08-24T07:17:11;25.50;99.90
20957;DHT22;10637;47.970;7.830;2023-08-24T07:22:14;26.00;99.90
20957;DHT22;10637;47.970;7.830;2023-08-24T07:27:15;26.20;99.90
20957;DHT22;10637;47.970;7.830;2023-08-24T07:32:18;26.10;99.90
20957;DHT22;10637;47.970;7.830;2023-08-24T07:37:20;26.60;99.90
20957;DHT22;10637;47.970;7.830;2023-08-24T07:42:22;26.90;99.90
20957;DHT22;10637;47.970;7.830;2023-08-24T07:47:24;27.30;99.90
20957;DHT22;10637;47.970;7.830;2023-08-24T07:52:26;27.50;99.90
20957;DHT22;10637;47.970;7.830;2023-08-24T07:57:30;28.10;99.90
20957;DHT22;10637;47.970;7.830;2023-08-24T08:02:36;28.30;99.90
20957;DHT22;10637;47.970;7.830;2023-08-24T08:07:39;28.60;99.90
20957;DHT22;10637;47.970;7.830;2023-08-24T08:12:41;29.00;99.90
20957;DHT22;10637;47.970;7.830;2023-08-24T08:17:42;29.00;99.90
20957;DHT22;10637;47.970;7.830;2023-08-24T08:22:44;28.90;99.90
20957;DHT22;10637;47.970;7.830;2023-08-24T08:27:46;29.00;99.90
20957;DHT22;10637;47.970;7.830;2023-08-24T08:32:48;29.40;99.90
20957;DHT22;10637;47.970;7.830;2023-08-24T08:37:53;29.90;99.90
20957;DHT22;10637;47.970;7.830;2023-08-24T08:42:57;30.30;99.90
20957;DHT22;10637;47.970;7.830;2023-08-24T08:48:00;30.70;99.90
20957;DHT22;10637;47.970;7.830;2023-08-24T08:53:03;31.00;99.90
20957;DHT22;10637;47.970;7.830;2023-08-24T08:58:04;31.30;99.90
20957;DHT22;10637;47.970;7.830;2023-08-24T09:03:07;31.60;99.90
20957;DHT22;10637;47.970;7.830;2023-08-24T09:08:10;31.90;99.90
20957;DHT22;10637;47.970;7.830;2023-08-24T09:13:12;31.90;99.90
20957;DHT22;10637;47.970;7.830;2023-08-24T09:18:14;31.90;99.90
20957;DHT22;10637;47.970;7.830;2023-08-24T09:23:19;31.50;99.90
20957;DHT22;10637;47.970;7.830;2023-08-24T09:28:23;31.60;99.90
20957;DHT22;10637;47.970;7.830;2023-08-24T09:33:26;32.10;99.90
20957;DHT22;10637;47.970;7.830;2023-08-24T09:38:28;32.60;99.90
20957;DHT22;10637;47.970;7.830;2023-08-24T09:43:30;32.60;99.90
20957;DHT22;10637;47.970;7.830;2023-08-24T09:48:32;32.80;99.90
20957;DHT22;10637;47.970;7.830;2023-08-24T09:53:37;33.10;99.90
20957;DHT22;10637;47.970;7.830;2023-08-24T09:58:40;33.90;99.90
20957;DHT22;10637;47.970;7.830;2023-08-24T10:03:44;34.30;99.90
20957;DHT22;10637;47.970;7.830;2023-08-24T10:08:54;34.60;99.90
20957;DHT22;10637;47.970;7.830;2023-08-24T10:14:21;34.90;99.90
20957;DHT22;10637;47.970;7.830;2023-08-24T10:19:25;35.30;99.90
20957;DHT22;10637;47.970;7.830;2023-08-24T10:24:31;35.50;99.90
20957;DHT22;10637;47.970;7.830;2023-08-24T10:29:33;35.40;99.90
20957;DHT22;10637;47.970;7.830;2023-08-24T10:34:35;35.00;99.90
20957;DHT22;10637;47.970;7.830;2023-08-24T10:39:46;35.30;99.90
20957;DHT22;10637;47.970;7.830;2023-08-24T10:44:48;35.90;99.40
20957;DHT22;10637;47.970;7.830;2023-08-24T10:55:01;36.60;98.70
20957;DHT22;10637;47.970;7.830;2023-08-24T11:05:15;37.20;98.10
20957;DHT22;10637;47.970;7.830;2023-08-24T11:10:18;37.90;97.30
20957;DHT22;10637;47.970;7.830;2023-08-24T11:15:29;38.10;96.10
20957;DHT22;10637;47.970;7.830;2023-08-24T11:20:31;38.20;96.40
20957;DHT22;10637;47.970;7.830;2023-08-24T11:25:35;38.20;95.50
20957;DHT22;10637;47.970;7.830;2023-08-24T11:30:38;38.40;95.90
20957;DHT22;10637;47.970;7.830;2023-08-24T11:35:42;38.80;94.80
20957;DHT22;10637;47.970;7.830;2023-08-24T11:40:44;38.50;93.60
20957;DHT22;10637;47.970;7.830;2023-08-24T11:45:46;38.60;94.40
20957;DHT22;10637;47.970;7.830;2023-08-24T11:50:48;38.70;93.90
20957;DHT22;10637;47.970;7.830;2023-08-24T11:55:53;39.10;94.00
20957;DHT22;10637;47.970;7.830;2023-08-24T12:01:10;39.30;92.30
20957;DHT22;10637;47.970;7.830;2023-08-24T12:06:16;39.10;92.70
20957;DHT22;10637;47.970;7.830;2023-08-24T12:11:19;39.20;92.80
20957;DHT22;10637;47.970;7.830;2023-08-24T12:16:22;39.10;92.70
20957;DHT22;10637;47.970;7.830;2023-08-24T12:21:31;38.70;92.70
20957;DHT22;10637;47.970;7.830;2023-08-24T12:26:34;38.50;92.70
20957;DHT22;10637;47.970;7.830;2023-08-24T12:31:42;38.80;92.70
20957;DHT22;10637;47.970;7.830;2023-08-24T12:36:44;39.10;92.20
20957;DHT22;10637;47.970;7.830;2023-08-24T12:41:46;39.30;92.40
20957;DHT22;10637;47.970;7.830;2023-08-24T12:46:48;39.50;91.20
20957;DHT22;10637;47.970;7.830;2023-08-24T12:51:50;39.70;91.90
20957;DHT22;10637;47.970;7.830;2023-08-24T12:56:52;39.80;91.50
20957;DHT22;10637;47.970;7.830;2023-08-24T13:01:53;39.20;91.50
20957;DHT22;10637;47.970;7.830;2023-08-24T13:06:55;39.20;91.10
20957;DHT22;10637;47.970;7.830;2023-08-24T13:11:57;39.20;91.90
20957;DHT22;10637;47.970;7.830;2023-08-24T13:16:59;39.10;91.50
20957;DHT22;10637;47.970;7.830;2023-08-24T13:22:00;38.80;91.20
20957;DHT22;10637;47.970;7.830;2023-08-24T13:27:02;38.70;91.60
20957;DHT22;10637;47.970;7.830;2023-08-24T13:32:04;38.90;91.00
20957;DHT22;10637;47.970;7.830;2023-08-24T13:37:06;39.20;91.70
20957;DHT22;10637;47.970;7.830;2023-08-24T13:42:08;39.30;91.70
20957;DHT22;10637;47.970;7.830;2023-08-24T13:47:10;39.20;89.40
20957;DHT22;10637;47.970;7.830;2023-08-24T13:52:11;38.90;90.60
20957;DHT22;10637;47.970;7.830;2023-08-24T13:57:14;38.90;90.10
20957;DHT22;10637;47.970;7.830;2023-08-24T14:02:16;38.90;90.40
20957;DHT22;10637;47.970;7.830;2023-08-24T14:07:17;38.90;90.20
20957;DHT22;10637;47.970;7.830;2023-08-24T14:12:19;38.90;89.40
20957;DHT22;10637;47.970;7.830;2023-08-24T14:17:21;38.90;85.50
20957;DHT22;10637;47.970;7.830;2023-08-24T14:22:23;38.90;88.00
20957;DHT22;10637;47.970;7.830;2023-08-24T14:27:25;38.90;86.50
20957;DHT22;10637;47.970;7.830;2023-08-24T14:32:26;39.00;87.60
20957;DHT22;10637;47.970;7.830;2023-08-24T14:37:28;39.00;85.30
20957;DHT22;10637;47.970;7.830;2023-08-24T14:42:30;39.00;85.80
20957;DHT22;10637;47.970;7.830;2023-08-24T14:47:32;38.90;82.80
20957;DHT22;10637;47.970;7.830;2023-08-24T14:52:34;38.70;84.60
20957;DHT22;10637;47.970;7.830;2023-08-24T14:57:36;38.70;85.60
20957;DHT22;10637;47.970;7.830;2023-08-24T15:02:37;38.80;84.60
20957;DHT22;10637;47.970;7.830;2023-08-24T15:07:39;38.80;85.60
20957;DHT22;10637;47.970;7.830;2023-08-24T15:12:41;38.60;85.10
20957;DHT22;10637;47.970;7.830;2023-08-24T15:17:46;38.00;87.40
20957;DHT22;10637;47.970;7.830;2023-08-24T15:22:50;37.60;88.30
20957;DHT22;10637;47.970;7.830;2023-08-24T15:27:52;37.30;88.70
20957;DHT22;10637;47.970;7.830;2023-08-24T15:32:54;36.50;92.50
20957;DHT22;10637;47.970;7.830;2023-08-24T15:37:56;35.90;94.10
20957;DHT22;10637;47.970;7.830;2023-08-24T15:42:58;35.30;95.40
20957;DHT22;10637;47.970;7.830;2023-08-24T15:48:00;35.10;95.60
20957;DHT22;10637;47.970;7.830;2023-08-24T15:53:02;34.80;95.80
20957;DHT22;10637;47.970;7.830;2023-08-24T15:58:04;34.50;96.20
20957;DHT22;10637;47.970;7.830;2023-08-24T16:03:06;34.40;96.80
20957;DHT22;10637;47.970;7.830;2023-08-24T16:08:08;34.00;97.50
20957;DHT22;10637;47.970;7.830;2023-08-24T16:13:10;34.00;97.40
20957;DHT22;10637;47.970;7.830;2023-08-24T16:18:12;33.70;98.40
20957;DHT22;10637;47.970;7.830;2023-08-24T16:23:14;33.60;97.80
20957;DHT22;10637;47.970;7.830;2023-08-24T16:28:16;33.10;98.30
20957;DHT22;10637;47.970;7.830;2023-08-24T16:33:18;33.10;99.20
20957;DHT22;10637;47.970;7.830;2023-08-24T16:38:20;33.20;99.50
20957;DHT22;10637;47.970;7.830;2023-08-24T16:43:21;33.10;99.90
20957;DHT22;10637;47.970;7.830;2023-08-24T16:48:23;32.80;99.90
20957;DHT22;10637;47.970;7.830;2023-08-24T16:53:25;32.40;99.90
20957;DHT22;10637;47.970;7.830;2023-08-24T16:58:27;32.30;99.90
20957;DHT22;10637;47.970;7.830;2023-08-24T17:03:29;32.10;99.90
20957;DHT22;10637;47.970;7.830;2023-08-24T17:08:31;32.00;99.90
20957;DHT22;10637;47.970;7.830;2023-08-24T17:13:32;31.80;99.90
20957;DHT22;10637;47.970;7.830;2023-08-24T17:18:34;31.40;99.90
20957;DHT22;10637;47.970;7.830;2023-08-24T17:23:37;31.60;99.90
20957;DHT22;10637;47.970;7.830;2023-08-24T17:28:39;31.50;99.90
20957;DHT22;10637;47.970;7.830;2023-08-24T17:33:41;31.10;99.90
20957;DHT22;10637;47.970;7.830;2023-08-24T17:38:42;30.70;99.90
20957;DHT22;10637;47.970;7.830;2023-08-24T17:43:44;30.60;99.90
20957;DHT22;10637;47.970;7.830;2023-08-24T17:48:46;30.40;99.90
20957;DHT22;10637;47.970;7.830;2023-08-24T17:53:48;30.60;99.90
20957;DHT22;10637;47.970;7.830;2023-08-24T17:58:50;29.80;99.90
20957;DHT22;10637;47.970;7.830;2023-08-24T18:03:51;25.30;99.90
20957;DHT22;10637;47.970;7.830;2023-08-24T18:08:54;20.30;99.90
20957;DHT22;10637;47.970;7.830;2023-08-24T18:13:56;21.70;99.90
20957;DHT22;10637;47.970;7.830;2023-08-24T18:18:59;20.40;99.90
20957;DHT22;10637;47.970;7.830;2023-08-24T18:24:01;20.00;99.90
20957;DHT22;10637;47.970;7.830;2023-08-24T18:29:02;20.20;99.90
20957;DHT22;10637;47.970;7.830;2023-08-24T18:34:05;20.30;99.90
20957;DHT22;10637;47.970;7.830;2023-08-24T18:39:07;20.70;99.90
20957;DHT22;10637;47.970;7.830;2023-08-24T18:44:09;20.90;99.90
20957;DHT22;10637;47.970;7.830;2023-08-24T18:49:11;21.40;99.90
20957;DHT22;10637;47.970;7.830;2023-08-24T18:54:12;22.00;99.90
20957;DHT22;10637;47.970;7.830;2023-08-24T18:59:14;21.60;99.90
20957;DHT22;10637;47.970;7.830;2023-08-24T19:04:16;21.20;99.90
20957;DHT22;10637;47.970;7.830;2023-08-24T19:09:18;21.00;99.90
20957;DHT22;10637;47.970;7.830;2023-08-24T19:14:20;21.20;99.90
20957;DHT22;10637;47.970;7.830;2023-08-24T19:19:22;21.40;99.90
20957;DHT22;10637;47.970;7.830;2023-08-24T19:24:24;21.50;99.90
20957;DHT22;10637;47.970;7.830;2023-08-24T19:29:26;21.50;99.90
20957;DHT22;10637;47.970;7.830;2023-08-24T19:34:27;21.80;99.90
20957;DHT22;10637;47.970;7.830;2023-08-24T19:39:29;21.70;99.90
20957;DHT22;10637;47.970;7.830;2023-08-24T19:44:31;21.70;99.90
20957;DHT22;10637;47.970;7.830;2023-08-24T19:49:33;22.00;99.90
20957;DHT22;10637;47.970;7.830;2023-08-24T19:54:34;21.80;99.90
20957;DHT22;10637;47.970;7.830;2023-08-24T19:59:36;21.90;99.90
20957;DHT22;10637;47.970;7.830;2023-08-24T20:04:38;22.10;99.90
20957;DHT22;10637;47.970;7.830;2023-08-24T20:09:41;22.10;99.90
20957;DHT22;10637;47.970;7.830;2023-08-24T20:14:43;22.00;99.90
20957;DHT22;10637;47.970;7.830;2023-08-24T20:19:45;22.00;99.90
20957;DHT22;10637;47.970;7.830;2023-08-24T20:24:47;21.60;99.90
20957;DHT22;10637;47.970;7.830;2023-08-24T20:29:49;21.80;99.90
20957;DHT22;10637;47.970;7.830;2023-08-24T20:34:51;22.00;99.90
20957;DHT22;10637;47.970;7.830;2023-08-24T20:39:53;22.20;99.90
20957;DHT22;10637;47.970;7.830;2023-08-24T20:44:55;22.40;99.90
20957;DHT22;10637;47.970;7.830;2023-08-24T20:49:56;22.40;99.90
20957;DHT22;10637;47.970;7.830;2023-08-24T20:54:58;22.90;99.90
20957;DHT22;10637;47.970;7.830;2023-08-24T21:00:00;22.30;99.90
20957;DHT22;10637;47.970;7.830;2023-08-24T21:05:02;22.60;99.90
20957;DHT22;10637;47.970;7.830;2023-08-24T21:10:06;22.30;99.90
20957;DHT22;10637;47.970;7.830;2023-08-24T21:15:08;22.70;99.90
20957;DHT22;10637;47.970;7.830;2023-08-24T21:20:10;21.90;99.90
20957;DHT22;10637;47.970;7.830;2023-08-24T21:25:12;21.80;99.90
20957;DHT22;10637;47.970;7.830;2023-08-24T21:30:14;22.70;99.90
20957;DHT22;10637;47.970;7.830;2023-08-24T21:35:15;23.00;99.90
20957;DHT22;10637;47.970;7.830;2023-08-24T21:40:17;22.70;99.90
20957;DHT22;10637;47.970;7.830;2023-08-24T21:45:23;22.50;99.90
20957;DHT22;10637;47.970;7.830;2023-08-24T21:50:25;23.10;99.90
20957;DHT22;10637;47.970;7.830;2023-08-24T21:55:35;23.40;99.90
20957;DHT22;10637;47.970;7.830;2023-08-24T22:00:37;23.20;99.90
20957;DHT22;10637;47.970;7.830;2023-08-24T22:05:42;23.10;99.90
20957;DHT22;10637;47.970;7.830;2023-08-24T22:10:44;23.10;99.90
20957;DHT22;10637;47.970;7.830;2023-08-24T22:15:49;23.10;99.90
20957;DHT22;10637;47.970;7.830;2023-08-24T22:20:52;23.10;99.90
20957;DHT22;10637;47.970;7.830;2023-08-24T22:25:54;23.00;99.90
20957;DHT22;10637;47.970;7.830;2023-08-24T22:30:56;23.10;99.90
20957;DHT22;10637;47.970;7.830;2023-08-24T22:35:57;22.70;99.90
20957;DHT22;10637;47.970;7.830;2023-08-24T22:40:59;22.80;99.90
20957;DHT22;10637;47.970;7.830;2023-08-24T22:46:01;22.90;99.90
20957;DHT22;10637;47.970;7.830;2023-08-24T22:51:03;22.70;99.90
20957;DHT22;10637;47.970;7.830;2023-08-24T22:56:05;22.60;99.90
20957;DHT22;10637;47.970;7.830;2023-08-24T23:01:16;22.60;99.90
20957;DHT22;10637;47.970;7.830;2023-08-24T23:06:20;22.60;99.90
20957;DHT22;10637;47.970;7.830;2023-08-24T23:11:21;22.40;99.90
20957;DHT22;10637;47.970;7.830;2023-08-24T23:16:24;22.40;99.90
20957;DHT22;10637;47.970;7.830;2023-08-24T23:21:26;22.40;99.90
20957;DHT22;10637;47.970;7.830;2023-08-24T23:26:29;22.50;99.90
20957;DHT22;10637;47.970;7.830;2023-08-24T23:31:31;22.30;99.90
20957;DHT22;10637;47.970;7.830;2023-08-24T23:36:33;22.30;99.90
20957;DHT22;10637;47.970;7.830;2023-08-24T23:41:34;22.50;99.90
20957;DHT22;10637;47.970;7.830;2023-08-24T23:46:36;22.20;99.90
20957;DHT22;10637;47.970;7.830;2023-08-24T23:51:38;22.40;99.90
20957;DHT22;10637;47.970;7.830;2023-08-24T23:56:40;22.60;99.90
